Los Angeles, California
Current Conditions -  °F | °C
As of 6:47 PM on Wednesday 26 Nov 2014 (Local Time) from KCQT Reporting Station
Clear Clear  
Wind Chill: 66°   Ceiling: Unl
Heat Index: 66°   Visibility: 10mi
Dew Point: 35°   Wind: 0mph
Humidity: 32%   Direction: NA
Pressure: 30.12"   Gusts: NA
Location:  34.05°N, 118.24°W
Report Text: KCQT 270247Z AUTO 00000KT 10SM CLR 19/02 A3012 RMK AO2 SLP199 T01890017 53002
Loading
Personal Weather Stations






























Interactive Weather Map New forecast layout! Learn more

10-Day Weather Forecast

Advertisements
Track Severe Weather on mobile